Time;durP1;ratioP1;P1;durP2;ratioP2;P2;SDS_P1;SDS_P2;PMS_P1;PMS_P2;Temp;Humidity;BMP_temperature;BMP_pressure;BME280_temperature;BME280_humidity;BME280_pressure;Samples;Min_cycle;Max_cycle;Signal;HPM_P1;HPM_P2
2024/02/19 00:02:20;;;;;;;0.40;0.30;;;7.90;99.90;;;;;;4956291;29;20442;-86
2024/02/19 00:04:47;;;;;;;0.30;0.30;;;7.90;99.90;;;;;;4956670;29;20442;-86
2024/02/19 00:07:17;;;;;;;0.30;0.30;;;7.90;99.90;;;;;;4956069;29;20489;-86
2024/02/19 00:09:44;;;;;;;0.40;0.30;;;7.90;99.90;;;;;;4956122;29;20478;-86
2024/02/19 00:12:11;;;;;;;0.40;0.30;;;8.00;99.90;;;;;;4956254;28;20525;-86
2024/02/19 00:14:37;;;;;;;0.60;0.33;;;8.00;99.90;;;;;;4956401;28;20493;-86
2024/02/19 00:17:04;;;;;;;0.30;0.20;;;8.00;99.90;;;;;;4955936;29;20874;-86
2024/02/19 00:19:31;;;;;;;0.30;0.30;;;8.00;99.90;;;;;;4955920;29;20478;-86
2024/02/19 00:21:58;;;;;;;0.30;0.30;;;8.10;99.90;;;;;;4955826;28;20505;-86
2024/02/19 00:24:26;;;;;;;0.30;0.20;;;8.00;99.90;;;;;;4955446;29;21007;-86
2024/02/19 00:26:53;;;;;;;0.30;0.20;;;8.00;99.90;;;;;;4955062;28;20490;-86
2024/02/19 00:29:20;;;;;;;0.30;0.20;;;8.00;99.90;;;;;;4955664;28;20486;-86
2024/02/19 00:31:47;;;;;;;0.40;0.30;;;8.00;99.90;;;;;;4955400;29;20454;-86
2024/02/19 00:34:14;;;;;;;0.30;0.23;;;8.00;99.90;;;;;;4955583;29;20477;-86
2024/02/19 00:36:42;;;;;;;0.70;0.30;;;8.00;99.90;;;;;;4955517;29;20457;-86
2024/02/19 00:39:08;;;;;;;0.30;0.20;;;8.10;99.90;;;;;;4955538;28;20484;-86
2024/02/19 00:41:36;;;;;;;0.30;0.30;;;8.10;99.90;;;;;;4955239;29;20446;-86
2024/02/19 00:44:03;;;;;;;0.30;0.30;;;8.10;99.90;;;;;;4956958;29;20457;-86
2024/02/19 00:46:30;;;;;;;0.30;0.30;;;8.10;99.90;;;;;;4965677;29;20477;-86
2024/02/19 00:48:56;;;;;;;0.30;0.20;;;8.10;99.90;;;;;;4955177;29;20446;-86
2024/02/19 00:51:23;;;;;;;0.30;0.20;;;8.10;99.90;;;;;;4955332;29;20467;-86
2024/02/19 00:53:50;;;;;;;0.30;0.20;;;8.10;99.90;;;;;;4955147;29;20963;-86
2024/02/19 00:56:17;;;;;;;0.40;0.30;;;8.00;99.90;;;;;;4955285;29;20865;-86
2024/02/19 00:58:45;;;;;;;0.30;0.20;;;8.10;99.90;;;;;;4955393;28;20438;-86
2024/02/19 01:01:11;;;;;;;0.30;0.20;;;8.00;99.90;;;;;;4955193;29;20470;-86
2024/02/19 01:03:38;;;;;;;0.50;0.30;;;8.10;99.90;;;;;;4955380;29;20450;-86
2024/02/19 01:06:05;;;;;;;0.30;0.30;;;8.10;99.90;;;;;;4955106;29;20497;-86
2024/02/19 01:08:32;;;;;;;0.30;0.30;;;8.10;99.90;;;;;;4955142;29;20461;-86
2024/02/19 01:10:58;;;;;;;1.57;0.30;;;8.10;99.90;;;;;;4954894;29;20497;-86
2024/02/19 01:13:25;;;;;;;0.30;0.30;;;8.10;99.90;;;;;;4955111;29;20462;-86
2024/02/19 01:15:53;;;;;;;0.30;0.30;;;8.00;99.90;;;;;;4955162;29;20450;-86
2024/02/19 01:18:22;;;;;;;0.30;0.20;;;8.00;99.90;;;;;;4955209;29;20863;-86
2024/02/19 01:20:48;;;;;;;0.30;0.30;;;8.00;99.90;;;;;;4955073;29;20834;-86
2024/02/19 01:23:16;;;;;;;0.30;0.20;;;8.00;99.90;;;;;;4955032;29;20461;-86
2024/02/19 01:25:43;;;;;;;0.30;0.30;;;8.00;99.90;;;;;;4954817;29;21003;-86
2024/02/19 01:28:10;;;;;;;0.40;0.30;;;8.00;99.90;;;;;;4955074;29;20442;-86
2024/02/19 01:30:37;;;;;;;0.30;0.20;;;8.00;99.90;;;;;;4955165;28;20502;-86
2024/02/19 01:33:06;;;;;;;0.30;0.20;;;8.00;99.90;;;;;;4955383;29;20537;-86
2024/02/19 01:35:33;;;;;;;0.30;0.30;;;8.00;99.90;;;;;;4955438;28;20447;-86
2024/02/19 01:38:00;;;;;;;0.30;0.27;;;7.90;99.90;;;;;;4955257;28;20446;-86
2024/02/19 01:40:26;;;;;;;0.30;0.20;;;7.90;99.90;;;;;;4958529;28;20836;-86
2024/02/19 01:43:02;;;;;;;0.30;0.30;;;8.00;99.90;;;;;;4958369;29;20871;-86
2024/02/19 01:45:28;;;;;;;0.30;0.20;;;8.00;99.90;;;;;;4958816;29;20888;-86
2024/02/19 01:47:56;;;;;;;0.30;0.23;;;8.00;99.90;;;;;;4958222;29;20494;-86
2024/02/19 01:50:25;;;;;;;0.30;0.30;;;8.10;99.90;;;;;;4958312;28;20553;-86
2024/02/19 01:52:53;;;;;;;0.30;0.30;;;8.00;99.90;;;;;;4958457;29;20456;-86
2024/02/19 01:55:22;;;;;;;0.30;0.20;;;8.00;99.90;;;;;;4958708;29;20449;-86
2024/02/19 01:57:51;;;;;;;0.30;0.30;;;8.10;99.90;;;;;;4958357;29;20450;-86
2024/02/19 02:00:18;;;;;;;0.30;0.20;;;8.10;99.90;;;;;;4958293;29;20473;-86
2024/02/19 02:02:46;;;;;;;0.30;0.20;;;8.00;99.90;;;;;;4957947;29;20435;-86
2024/02/19 02:05:13;;;;;;;0.30;0.30;;;8.00;99.90;;;;;;4958162;29;20454;-86
2024/02/19 02:07:41;;;;;;;0.30;0.23;;;7.90;99.90;;;;;;4957827;29;20927;-86
2024/02/19 02:10:09;;;;;;;0.30;0.30;;;8.00;99.90;;;;;;4957654;29;20501;-86
2024/02/19 02:12:35;;;;;;;0.30;0.20;;;8.10;99.90;;;;;;4958810;29;20459;-86
2024/02/19 02:15:02;;;;;;;0.30;0.20;;;8.10;99.90;;;;;;4958063;29;20450;-86
2024/02/19 02:17:29;;;;;;;0.40;0.30;;;8.10;99.90;;;;;;4957448;29;20446;-86
2024/02/19 02:19:56;;;;;;;0.30;0.20;;;8.10;99.90;;;;;;4957728;29;20565;-86
2024/02/19 02:22:22;;;;;;;0.30;0.20;;;8.10;99.90;;;;;;4957671;29;20439;-86
2024/02/19 02:24:50;;;;;;;0.30;0.30;;;8.10;99.90;;;;;;4957401;29;20527;-86
2024/02/19 02:27:19;;;;;;;0.60;0.30;;;8.20;99.90;;;;;;4957348;29;21003;-86
2024/02/19 02:29:45;;;;;;;0.30;0.30;;;8.20;99.90;;;;;;4957488;29;20461;-86
2024/02/19 02:32:12;;;;;;;1.23;0.30;;;8.20;99.90;;;;;;4957374;29;20940;-86
2024/02/19 02:34:39;;;;;;;0.30;0.20;;;8.20;99.90;;;;;;4957802;29;20481;-86
2024/02/19 02:37:06;;;;;;;0.30;0.20;;;8.10;99.90;;;;;;4957754;29;20442;-86
2024/02/19 02:39:33;;;;;;;0.40;0.37;;;8.10;99.90;;;;;;4957751;29;20462;-85
2024/02/19 02:41:59;;;;;;;0.30;0.30;;;8.10;99.90;;;;;;4957591;29;20457;-86
2024/02/19 02:44:27;;;;;;;0.30;0.20;;;8.20;99.90;;;;;;4957263;29;20446;-86
2024/02/19 02:46:54;;;;;;;0.30;0.30;;;8.20;99.90;;;;;;4957063;29;21034;-86
2024/02/19 02:49:21;;;;;;;0.30;0.30;;;8.20;99.90;;;;;;4957205;29;20820;-86
2024/02/19 02:51:47;;;;;;;0.30;0.30;;;8.20;99.90;;;;;;4957177;28;20442;-86
2024/02/19 02:54:14;;;;;;;0.50;0.30;;;8.30;99.90;;;;;;4956950;29;20438;-87
2024/02/19 02:56:41;;;;;;;0.30;0.20;;;8.30;99.90;;;;;;4957264;29;20443;-87
2024/02/19 02:59:07;;;;;;;0.30;0.30;;;8.30;99.90;;;;;;4969241;29;20442;-86
2024/02/19 03:01:37;;;;;;;0.30;0.20;;;8.30;99.90;;;;;;4956931;29;20538;-87
2024/02/19 03:04:04;;;;;;;1.60;0.30;;;8.30;99.90;;;;;;4956703;29;20506;-88
2024/02/19 03:06:30;;;;;;;0.30;0.30;;;8.30;99.90;;;;;;4956553;29;20439;-88
2024/02/19 03:08:57;;;;;;;0.43;0.30;;;8.30;99.90;;;;;;4956511;29;20434;-88
2024/02/19 03:11:24;;;;;;;0.30;0.20;;;8.30;99.90;;;;;;4956558;29;20494;-88
2024/02/19 03:13:50;;;;;;;0.30;0.30;;;8.30;99.90;;;;;;4957077;29;20820;-88
2024/02/19 03:16:17;;;;;;;0.30;0.30;;;8.30;99.90;;;;;;4957352;29;20451;-88
2024/02/19 03:18:46;;;;;;;0.87;0.43;;;8.20;99.90;;;;;;4956821;29;20445;-88
2024/02/19 03:21:15;;;;;;;0.30;0.20;;;8.20;99.90;;;;;;4956725;29;20459;-88
2024/02/19 03:23:48;;;;;;;0.40;0.30;;;8.20;99.90;;;;;;4956651;29;20453;-88
2024/02/19 03:26:16;;;;;;;0.70;0.40;;;8.20;99.90;;;;;;4957027;29;20423;-88
2024/02/19 03:28:43;;;;;;;0.30;0.20;;;8.20;99.90;;;;;;4956761;29;20497;-88
2024/02/19 03:31:10;;;;;;;0.30;0.20;;;8.20;99.90;;;;;;4956888;28;20498;-88
2024/02/19 03:33:38;;;;;;;0.40;0.40;;;8.30;99.90;;;;;;4960480;29;20850;-86
2024/02/19 03:36:09;;;;;;;0.30;0.20;;;8.20;99.90;;;;;;4959543;29;20983;-88
2024/02/19 03:38:36;;;;;;;1.07;0.30;;;8.20;99.90;;;;;;4956416;29;20449;-88
2024/02/19 03:41:04;;;;;;;0.30;0.30;;;8.20;99.90;;;;;;4956789;29;20501;-88
2024/02/19 03:43:31;;;;;;;0.30;0.20;;;8.20;99.90;;;;;;4956698;29;20446;-88
2024/02/19 03:45:57;;;;;;;0.30;0.30;;;8.20;99.90;;;;;;4956849;29;20454;-88
2024/02/19 03:48:24;;;;;;;0.30;0.30;;;8.20;99.90;;;;;;4956767;29;20999;-88
2024/02/19 03:50:51;;;;;;;0.40;0.30;;;8.20;99.90;;;;;;4957059;29;20469;-88
2024/02/19 03:53:20;;;;;;;0.30;0.30;;;8.20;99.90;;;;;;4956910;29;20434;-89
2024/02/19 03:55:46;;;;;;;0.30;0.30;;;8.20;99.90;;;;;;4956702;29;20497;-88
2024/02/19 03:58:13;;;;;;;0.30;0.30;;;8.20;99.90;;;;;;4956452;29;20446;-88
2024/02/19 04:00:40;;;;;;;0.30;0.30;;;8.10;99.90;;;;;;4955642;29;20478;-88
2024/02/19 04:03:07;;;;;;;0.40;0.30;;;8.20;99.90;;;;;;4955434;28;20819;-88
2024/02/19 04:05:34;;;;;;;0.63;0.33;;;8.20;99.90;;;;;;4955931;29;20944;-88
2024/02/19 04:08:00;;;;;;;14.47;0.93;;;8.20;99.90;;;;;;4955834;29;20482;-88
2024/02/19 04:10:28;;;;;;;0.40;0.30;;;8.10;99.90;;;;;;4955311;29;20482;-88
2024/02/19 04:12:55;;;;;;;0.67;0.30;;;8.20;99.90;;;;;;4956157;29;20449;-88
2024/02/19 04:15:22;;;;;;;1.13;0.60;;;8.20;99.90;;;;;;4955990;29;20446;-88
2024/02/19 04:17:49;;;;;;;0.40;0.30;;;8.10;99.90;;;;;;4955886;29;20438;-87
2024/02/19 04:20:16;;;;;;;0.30;0.30;;;8.20;99.90;;;;;;4955973;28;20838;-88
2024/02/19 04:22:43;;;;;;;0.50;0.33;;;8.20;99.90;;;;;;4956101;29;20454;-88
2024/02/19 04:25:10;;;;;;;0.40;0.30;;;8.20;99.90;;;;;;4955904;29;20493;-88
2024/02/19 04:27:38;;;;;;;0.40;0.40;;;8.20;99.90;;;;;;4955634;29;21014;-88
2024/02/19 04:30:06;;;;;;;0.60;0.50;;;8.20;99.90;;;;;;4955709;29;20462;-87
2024/02/19 04:32:32;;;;;;;0.40;0.40;;;8.20;99.90;;;;;;4955441;29;20438;-87
2024/02/19 04:34:59;;;;;;;0.70;0.60;;;8.20;99.90;;;;;;4955660;29;20455;-87
2024/02/19 04:37:26;;;;;;;0.37;0.37;;;8.20;99.90;;;;;;4955623;29;20446;-87
2024/02/19 04:39:52;;;;;;;0.70;0.70;;;8.20;99.90;;;;;;4955194;29;20968;-87
2024/02/19 04:42:19;;;;;;;0.40;0.40;;;8.20;99.90;;;;;;4955438;29;20446;-87
2024/02/19 04:44:48;;;;;;;3.17;0.60;;;8.20;99.90;;;;;;4956007;29;20458;-87
2024/02/19 04:47:15;;;;;;;0.40;0.40;;;8.20;99.90;;;;;;4955268;29;20493;-87
2024/02/19 04:49:42;;;;;;;0.40;0.30;;;8.20;99.90;;;;;;4955097;29;20459;-87
2024/02/19 04:52:09;;;;;;;0.73;0.60;;;8.20;99.90;;;;;;4955283;28;20481;-87
2024/02/19 04:54:36;;;;;;;0.53;0.40;;;8.20;99.90;;;;;;4955194;29;20446;-87
2024/02/19 04:57:04;;;;;;;1.33;0.40;;;8.10;99.90;;;;;;4955506;29;20454;-87
2024/02/19 04:59:31;;;;;;;0.50;0.40;;;8.10;99.90;;;;;;4955236;29;20477;-87
2024/02/19 05:01:59;;;;;;;0.50;0.50;;;8.10;99.90;;;;;;4955308;29;20450;-87
2024/02/19 05:04:26;;;;;;;0.30;0.30;;;8.10;99.90;;;;;;4955036;29;20948;-87
2024/02/19 05:06:54;;;;;;;1.30;0.70;;;8.10;99.90;;;;;;4955019;29;20446;-87
2024/02/19 05:09:20;;;;;;;0.63;0.40;;;8.10;99.90;;;;;;4955246;28;20486;-87
2024/02/19 05:11:47;;;;;;;0.70;0.53;;;8.10;99.90;;;;;;4973093;28;20494;-87
2024/02/19 05:14:14;;;;;;;0.63;0.63;;;8.10;99.90;;;;;;4957305;28;20461;-87
2024/02/19 05:16:41;;;;;;;0.40;0.40;;;8.10;99.90;;;;;;4958664;29;20438;-87
2024/02/19 05:19:09;;;;;;;1.20;1.13;;;8.10;99.90;;;;;;4958759;29;20442;-87
2024/02/19 05:21:40;;;;;;;1.10;0.50;;;8.10;99.90;;;;;;4958676;29;20458;-87
2024/02/19 05:24:08;;;;;;;0.60;0.47;;;8.10;99.90;;;;;;4958810;28;20482;-87
2024/02/19 05:26:35;;;;;;;0.53;0.53;;;8.10;99.90;;;;;;4958689;29;20541;-87
2024/02/19 05:29:03;;;;;;;0.73;0.50;;;8.10;99.90;;;;;;4958323;29;20987;-87
2024/02/19 05:31:35;;;;;;;0.60;0.60;;;8.10;99.90;;;;;;4958593;29;20480;-87
2024/02/19 05:34:04;;;;;;;0.70;0.47;;;8.10;99.90;;;;;;4958613;29;20442;-87
2024/02/19 05:36:32;;;;;;;0.80;0.50;;;8.10;99.90;;;;;;4960441;29;20467;-87
2024/02/19 05:38:59;;;;;;;1.00;0.50;;;8.10;99.90;;;;;;4960126;29;20442;-87
2024/02/19 05:41:26;;;;;;;2.77;0.50;;;8.10;99.90;;;;;;4959604;29;20470;-87
2024/02/19 05:43:53;;;;;;;1.30;0.50;;;8.10;99.90;;;;;;4958976;29;20485;-87
2024/02/19 05:46:20;;;;;;;2.17;0.90;;;8.10;99.90;;;;;;4958305;29;20446;-87
2024/02/19 05:48:48;;;;;;;0.80;0.60;;;8.10;99.90;;;;;;4957927;29;20489;-87
2024/02/19 05:51:15;;;;;;;0.80;0.77;;;8.10;99.90;;;;;;4958103;29;20474;-87
2024/02/19 05:53:43;;;;;;;0.70;0.60;;;8.20;99.90;;;;;;4958160;29;20442;-87
2024/02/19 05:56:10;;;;;;;1.23;0.57;;;8.20;99.90;;;;;;4958191;29;20450;-87
2024/02/19 05:58:39;;;;;;;0.80;0.67;;;8.20;99.90;;;;;;4957759;29;20450;-87
2024/02/19 06:01:06;;;;;;;0.50;0.40;;;8.20;99.90;;;;;;4958086;28;20502;-87
2024/02/19 06:03:35;;;;;;;0.93;0.60;;;8.20;99.90;;;;;;4957897;29;20453;-87
2024/02/19 06:06:02;;;;;;;0.50;0.50;;;8.20;99.90;;;;;;4958060;29;20442;-88
2024/02/19 06:08:28;;;;;;;1.73;0.90;;;8.10;99.90;;;;;;4958213;29;20489;-87
2024/02/19 06:10:57;;;;;;;0.83;0.70;;;8.10;99.90;;;;;;4957640;29;20486;-87
2024/02/19 06:13:24;;;;;;;0.90;0.70;;;8.10;99.90;;;;;;4957718;29;20814;-87
2024/02/19 06:15:51;;;;;;;0.40;0.40;;;8.10;99.90;;;;;;4957809;29;20822;-87
2024/02/19 06:18:18;;;;;;;0.63;0.60;;;8.00;99.90;;;;;;4958074;29;20454;-87
2024/02/19 06:20:44;;;;;;;1.57;0.60;;;8.00;99.90;;;;;;4957603;29;20489;-87
2024/02/19 06:23:11;;;;;;;0.60;0.57;;;7.90;99.90;;;;;;4957695;29;20454;-86
2024/02/19 06:25:38;;;;;;;0.73;0.73;;;7.90;99.90;;;;;;4956659;28;20450;-87
2024/02/19 06:28:06;;;;;;;2.13;0.63;;;7.90;99.90;;;;;;4957646;29;20489;-87
2024/02/19 06:30:35;;;;;;;2.27;0.70;;;7.90;99.90;;;;;;4957577;29;20477;-87
2024/02/19 06:33:01;;;;;;;0.53;0.50;;;7.90;99.90;;;;;;4957598;29;20502;-87
2024/02/19 06:35:28;;;;;;;0.50;0.50;;;7.90;99.90;;;;;;4958422;29;20442;-87
2024/02/19 06:37:55;;;;;;;0.83;0.83;;;7.90;99.90;;;;;;4957734;29;20441;-86
2024/02/19 06:40:22;;;;;;;1.00;0.57;;;7.90;99.90;;;;;;4957234;29;20505;-87
2024/02/19 06:42:49;;;;;;;2.03;0.50;;;7.90;99.90;;;;;;4957597;29;20446;-86
2024/02/19 06:45:17;;;;;;;1.13;0.67;;;7.90;99.90;;;;;;4957454;29;20477;-87
2024/02/19 06:47:44;;;;;;;0.40;0.40;;;7.90;99.90;;;;;;4957085;29;20529;-86
2024/02/19 06:50:11;;;;;;;0.70;0.70;;;7.90;99.90;;;;;;4957523;29;20478;-86
2024/02/19 06:52:43;;;;;;;0.40;0.33;;;7.80;99.90;;;;;;4957432;29;20442;-86
2024/02/19 06:55:09;;;;;;;4.20;0.60;;;7.80;99.90;;;;;;4957278;29;20443;-86
2024/02/19 06:57:36;;;;;;;0.60;0.60;;;7.90;99.90;;;;;;4956844;29;20435;-86
2024/02/19 07:00:03;;;;;;;0.50;0.50;;;7.90;99.90;;;;;;4957048;29;20469;-86
2024/02/19 07:02:31;;;;;;;0.93;0.50;;;7.90;99.90;;;;;;4957053;29;20446;-86
2024/02/19 07:04:58;;;;;;;0.60;0.60;;;7.90;99.90;;;;;;4957331;28;20458;-86
2024/02/19 07:07:25;;;;;;;0.50;0.50;;;7.90;99.90;;;;;;4956946;29;20940;-86
2024/02/19 07:09:52;;;;;;;0.40;0.40;;;7.90;99.90;;;;;;4956854;29;20486;-86
2024/02/19 07:12:19;;;;;;;0.77;0.50;;;8.00;99.90;;;;;;4956759;29;20478;-86
2024/02/19 07:14:45;;;;;;;0.43;0.30;;;7.90;99.90;;;;;;4957424;29;20451;-86
2024/02/19 07:17:12;;;;;;;0.40;0.40;;;8.00;99.90;;;;;;4957405;29;20509;-86
2024/02/19 07:19:40;;;;;;;2.43;1.03;;;8.00;99.90;;;;;;4957548;29;20467;-86
2024/02/19 07:22:07;;;;;;;0.93;0.60;;;8.00;99.90;;;;;;4957569;29;20972;-86
2024/02/19 07:24:35;;;;;;;0.80;0.80;;;8.00;99.90;;;;;;4970546;29;20450;-86
2024/02/19 07:27:02;;;;;;;1.33;0.53;;;8.10;99.90;;;;;;4956675;29;20450;-86
2024/02/19 07:29:30;;;;;;;0.33;0.33;;;8.20;99.90;;;;;;4956257;29;20502;-86
2024/02/19 07:31:56;;;;;;;0.60;0.60;;;8.30;99.90;;;;;;4956234;29;20449;-86
2024/02/19 07:34:24;;;;;;;5.53;0.80;;;8.30;99.90;;;;;;4956452;29;20442;-86
2024/02/19 07:36:52;;;;;;;0.60;0.50;;;8.30;99.90;;;;;;4956256;28;20434;-86
2024/02/19 07:39:19;;;;;;;0.50;0.30;;;8.40;99.90;;;;;;4956259;29;20450;-86
2024/02/19 07:41:46;;;;;;;0.40;0.40;;;8.50;99.90;;;;;;4957144;28;20948;-86
2024/02/19 07:44:12;;;;;;;0.57;0.50;;;8.50;99.90;;;;;;4958662;29;20871;-86
2024/02/19 07:46:40;;;;;;;0.50;0.50;;;8.60;99.90;;;;;;4957601;29;20465;-86
2024/02/19 07:49:06;;;;;;;0.53;0.53;;;8.60;99.90;;;;;;4956905;29;20905;-85
2024/02/19 07:51:33;;;;;;;0.40;0.40;;;8.80;99.90;;;;;;4958081;29;20450;-85
2024/02/19 07:54:01;;;;;;;0.77;0.40;;;8.90;99.90;;;;;;4957653;29;20457;-86
2024/02/19 07:56:28;;;;;;;0.90;0.60;;;9.00;99.90;;;;;;4956986;29;20450;-86
2024/02/19 07:58:54;;;;;;;0.50;0.40;;;9.10;99.90;;;;;;4956138;29;20799;-85
2024/02/19 08:01:21;;;;;;;0.60;0.60;;;9.20;99.90;;;;;;4956274;29;20470;-85
2024/02/19 08:03:48;;;;;;;3.90;0.70;;;9.20;99.90;;;;;;4955780;29;20442;-85
2024/02/19 08:06:14;;;;;;;1.23;0.40;;;9.30;99.90;;;;;;4956300;29;20465;-85
2024/02/19 08:08:41;;;;;;;0.57;0.33;;;9.50;99.90;;;;;;4956147;29;20520;-85
2024/02/19 08:11:09;;;;;;;3.80;0.60;;;9.60;99.90;;;;;;4955841;29;20494;-85
2024/02/19 08:13:36;;;;;;;2.30;0.50;;;9.80;99.90;;;;;;4957064;29;20446;-85
2024/02/19 08:16:04;;;;;;;0.93;0.63;;;10.00;99.90;;;;;;4956334;29;20418;-85
2024/02/19 08:18:31;;;;;;;0.60;0.43;;;10.00;99.90;;;;;;4956173;29;20485;-85
2024/02/19 08:20:58;;;;;;;0.30;0.30;;;10.10;99.90;;;;;;4955520;29;20501;-84
2024/02/19 08:23:24;;;;;;;0.50;0.50;;;10.10;99.90;;;;;;4958562;29;20505;-84
2024/02/19 08:25:51;;;;;;;0.30;0.30;;;10.20;99.90;;;;;;4956498;29;20450;-85
2024/02/19 08:28:20;;;;;;;0.40;0.40;;;10.10;99.90;;;;;;4958026;29;20498;-85
2024/02/19 08:30:47;;;;;;;0.43;0.43;;;10.20;99.90;;;;;;4956878;29;20861;-84
2024/02/19 08:33:13;;;;;;;0.57;0.40;;;10.20;99.90;;;;;;4956645;28;20452;-84
2024/02/19 08:35:41;;;;;;;2.13;0.43;;;10.20;99.90;;;;;;4957456;29;20454;-85
2024/02/19 08:38:07;;;;;;;0.50;0.33;;;10.20;99.90;;;;;;4956609;29;20542;-84
2024/02/19 08:40:34;;;;;;;0.50;0.40;;;10.20;99.90;;;;;;4957052;29;20462;-84
2024/02/19 08:43:01;;;;;;;0.70;0.50;;;10.20;99.90;;;;;;4956860;29;20454;-84
2024/02/19 08:45:29;;;;;;;1.27;0.60;;;10.20;99.90;;;;;;4955601;29;20446;-84
2024/02/19 08:47:55;;;;;;;0.37;0.30;;;10.10;99.90;;;;;;4955959;28;20450;-84
2024/02/19 08:50:22;;;;;;;0.70;0.50;;;10.10;99.90;;;;;;4959779;29;20489;-84
2024/02/19 08:52:50;;;;;;;0.60;0.40;;;10.10;99.90;;;;;;4960137;29;20457;-84
2024/02/19 08:55:17;;;;;;;0.40;0.30;;;10.00;99.90;;;;;;4959952;29;20458;-84
2024/02/19 08:57:43;;;;;;;0.47;0.47;;;10.00;99.90;;;;;;4959899;29;20446;-84
2024/02/19 09:00:11;;;;;;;0.30;0.30;;;10.00;99.90;;;;;;4959361;29;20470;-84
2024/02/19 09:02:42;;;;;;;0.80;0.30;;;9.90;99.90;;;;;;4959578;29;20454;-82
2024/02/19 09:05:09;;;;;;;1.73;0.40;;;9.90;99.90;;;;;;4961316;29;20439;-82
2024/02/19 09:07:36;;;;;;;0.30;0.30;;;9.70;99.90;;;;;;4960578;29;20461;-85
2024/02/19 09:10:04;;;;;;;3.07;1.00;;;9.70;99.90;;;;;;4958943;29;20541;-84
2024/02/19 09:12:31;;;;;;;0.40;0.30;;;9.80;99.90;;;;;;4959628;29;20439;-84
2024/02/19 09:14:58;;;;;;;0.37;0.30;;;9.80;99.90;;;;;;4959162;29;20442;-84
2024/02/19 09:17:26;;;;;;;0.30;0.30;;;9.80;99.90;;;;;;4959553;29;20524;-83
2024/02/19 09:19:54;;;;;;;3.70;0.60;;;9.70;99.90;;;;;;4959895;29;20836;-83
2024/02/19 09:22:21;;;;;;;0.50;0.50;;;9.70;99.90;;;;;;4959551;29;20454;-83
2024/02/19 09:24:47;;;;;;;0.40;0.30;;;9.80;99.90;;;;;;4959565;29;20461;-83
2024/02/19 09:27:15;;;;;;;1.13;0.60;;;9.80;99.90;;;;;;4960197;29;20453;-83
2024/02/19 09:29:41;;;;;;;0.70;0.40;;;9.90;99.90;;;;;;4960893;29;20597;-83
2024/02/19 09:32:08;;;;;;;0.40;0.30;;;9.80;99.90;;;;;;4963366;28;20486;-83
2024/02/19 09:34:35;;;;;;;0.30;0.30;;;9.90;99.90;;;;;;4962336;29;20438;-84
2024/02/19 09:37:03;;;;;;;0.30;0.30;;;9.90;99.90;;;;;;4967702;29;20453;-83
2024/02/19 09:39:30;;;;;;;1.63;0.40;;;9.90;99.90;;;;;;4962956;28;20473;-83
2024/02/19 09:41:57;;;;;;;0.30;0.20;;;9.90;99.90;;;;;;4961850;29;20458;-83
2024/02/19 09:44:24;;;;;;;0.50;0.37;;;9.90;99.90;;;;;;4962604;29;20445;-83
2024/02/19 09:46:55;;;;;;;0.40;0.30;;;9.90;99.90;;;;;;4962216;29;20450;-83
2024/02/19 09:49:26;;;;;;;0.40;0.30;;;10.00;99.90;;;;;;4963031;29;20482;-83
2024/02/19 09:51:56;;;;;;;1.47;0.40;;;10.00;99.90;;;;;;4963028;29;20859;-83
2024/02/19 09:54:25;;;;;;;0.40;0.30;;;10.00;99.90;;;;;;4962321;29;20427;-83
2024/02/19 09:56:54;;;;;;;0.67;0.40;;;10.10;99.90;;;;;;4961800;29;20813;-83
2024/02/19 09:59:21;;;;;;;0.30;0.30;;;10.10;99.90;;;;;;4962127;28;20454;-83
2024/02/19 10:01:49;;;;;;;0.30;0.30;;;10.10;99.90;;;;;;4962656;29;20962;-83
2024/02/19 10:04:16;;;;;;;0.40;0.40;;;10.10;99.90;;;;;;4963068;29;20462;-84
2024/02/19 10:06:43;;;;;;;0.40;0.40;;;10.20;99.90;;;;;;4963704;29;20454;-84
2024/02/19 10:09:11;;;;;;;0.40;0.40;;;10.30;99.90;;;;;;4962696;29;20925;-85
2024/02/19 10:11:39;;;;;;;0.40;0.30;;;10.40;99.90;;;;;;4963885;29;20500;-85
2024/02/19 10:14:09;;;;;;;2.80;0.40;;;10.40;99.90;;;;;;4963985;29;20443;-85
2024/02/19 10:16:36;;;;;;;0.40;0.30;;;10.50;99.90;;;;;;4964409;29;20959;-85
2024/02/19 10:19:06;;;;;;;3.23;0.57;;;10.50;99.90;;;;;;4964640;29;20442;-85
2024/02/19 10:21:34;;;;;;;5.60;0.40;;;10.50;99.90;;;;;;4964057;29;20823;-85
2024/02/19 10:24:00;;;;;;;0.50;0.30;;;10.50;99.90;;;;;;4964152;29;20454;-85
2024/02/19 10:26:27;;;;;;;0.50;0.40;;;10.50;99.90;;;;;;4963410;29;20453;-85
2024/02/19 10:28:57;;;;;;;0.53;0.43;;;10.50;99.90;;;;;;4962931;29;20466;-85
2024/02/19 10:31:24;;;;;;;0.83;0.50;;;10.60;99.90;;;;;;4962789;29;20549;-85
2024/02/19 10:33:51;;;;;;;0.63;0.63;;;10.60;99.90;;;;;;4963191;29;20845;-85
2024/02/19 10:36:22;;;;;;;0.40;0.30;;;10.60;99.90;;;;;;4960843;29;20527;-84
2024/02/19 10:38:48;;;;;;;1.27;0.50;;;10.60;99.90;;;;;;4960753;29;20431;-83
2024/02/19 10:41:17;;;;;;;0.50;0.47;;;10.60;99.90;;;;;;4960322;28;20497;-83
2024/02/19 10:43:44;;;;;;;1.90;0.60;;;10.50;99.90;;;;;;4960276;28;20955;-83
2024/02/19 10:46:13;;;;;;;0.40;0.40;;;10.40;99.90;;;;;;4960403;29;20439;-83
2024/02/19 10:48:40;;;;;;;0.63;0.40;;;10.40;99.90;;;;;;4960400;29;20505;-83
2024/02/19 10:51:07;;;;;;;0.33;0.33;;;10.40;99.90;;;;;;4959746;29;20513;-83
2024/02/19 10:53:34;;;;;;;0.50;0.30;;;10.40;99.90;;;;;;4958135;29;20454;-83
2024/02/19 10:56:10;;;;;;;1.70;0.50;;;10.50;99.90;;;;;;4958206;29;20940;-83
2024/02/19 10:58:37;;;;;;;1.50;0.40;;;10.40;99.90;;;;;;4957874;29;20434;-83
2024/02/19 11:01:06;;;;;;;0.30;0.20;;;10.50;99.90;;;;;;4957879;29;20517;-83
2024/02/19 11:03:45;;;;;;;6.63;0.60;;;10.60;99.90;;;;;;4957416;29;20450;-83
2024/02/19 11:06:13;;;;;;;2.03;0.60;;;10.80;99.90;;;;;;4957871;29;20437;-83
2024/02/19 11:08:50;;;;;;;0.50;0.40;;;10.90;99.90;;;;;;4957584;29;20517;-82
2024/02/19 11:11:20;;;;;;;0.40;0.33;;;11.00;99.90;;;;;;4957406;28;20533;-83
2024/02/19 11:13:48;;;;;;;0.97;0.40;;;11.10;99.90;;;;;;4957954;29;20443;-83
2024/02/19 11:16:18;;;;;;;5.63;0.80;;;11.20;99.90;;;;;;4957426;29;20985;-83
2024/02/19 11:18:48;;;;;;;1.37;0.57;;;11.30;99.90;;;;;;4957685;29;20445;-83
2024/02/19 11:21:18;;;;;;;0.43;0.40;;;11.40;99.90;;;;;;4957403;28;20971;-83
2024/02/19 11:23:45;;;;;;;0.50;0.47;;;11.50;99.90;;;;;;4958471;28;20906;-83
2024/02/19 11:26:12;;;;;;;0.40;0.30;;;11.70;99.90;;;;;;4957616;29;20451;-82
2024/02/19 11:28:39;;;;;;;0.63;0.50;;;11.90;99.90;;;;;;4957123;29;20442;-83
2024/02/19 11:31:05;;;;;;;1.57;0.60;;;12.10;99.90;;;;;;4956846;29;20497;-83
2024/02/19 11:33:32;;;;;;;5.90;0.77;;;12.20;99.90;;;;;;4959913;29;20948;-84
2024/02/19 11:36:00;;;;;;;2.50;0.73;;;12.40;99.90;;;;;;4962842;29;20482;-83
2024/02/19 11:38:29;;;;;;;0.53;0.50;;;12.40;99.90;;;;;;4960283;29;20446;-84
2024/02/19 11:40:57;;;;;;;1.47;0.90;;;12.40;99.90;;;;;;4959837;29;21010;-83
2024/02/19 11:43:25;;;;;;;0.93;0.50;;;12.50;99.90;;;;;;4957100;29;20860;-83
2024/02/19 11:45:52;;;;;;;0.57;0.40;;;12.50;99.90;;;;;;4956923;29;20442;-83
2024/02/19 11:48:19;;;;;;;0.40;0.30;;;12.40;99.90;;;;;;4956983;29;20892;-83
2024/02/19 11:50:47;;;;;;;1.80;0.40;;;12.40;99.90;;;;;;4963610;28;20860;-82
2024/02/19 11:53:15;;;;;;;0.60;0.50;;;12.40;99.90;;;;;;4958996;29;20450;-83
2024/02/19 11:55:42;;;;;;;1.87;0.43;;;12.30;99.90;;;;;;4957855;29;20453;-83
2024/02/19 11:58:10;;;;;;;0.80;0.40;;;12.20;99.90;;;;;;4958793;29;20446;-83
2024/02/19 12:00:36;;;;;;;0.40;0.40;;;12.10;99.90;;;;;;4959596;29;20469;-83
2024/02/19 12:03:04;;;;;;;0.77;0.50;;;11.90;99.90;;;;;;4958553;29;20439;-83
2024/02/19 12:05:31;;;;;;;0.40;0.37;;;11.90;99.90;;;;;;4958859;29;20545;-83
2024/02/19 12:07:58;;;;;;;0.40;0.30;;;11.80;99.90;;;;;;4959545;29;20473;-83
2024/02/19 12:10:27;;;;;;;1.50;0.50;;;11.80;99.90;;;;;;4958770;29;20999;-83
2024/02/19 12:12:56;;;;;;;0.83;0.40;;;11.70;99.90;;;;;;4959375;29;20434;-83
2024/02/19 12:15:23;;;;;;;0.50;0.33;;;11.70;99.90;;;;;;4959690;29;20451;-83
2024/02/19 12:17:52;;;;;;;15.27;0.70;;;11.80;99.90;;;;;;4958458;29;20983;-83
2024/02/19 12:20:19;;;;;;;5.77;0.50;;;11.80;99.90;;;;;;4958342;29;20469;-83
2024/02/19 12:22:46;;;;;;;0.37;0.30;;;11.80;99.90;;;;;;4957798;28;20832;-83
2024/02/19 12:25:13;;;;;;;0.40;0.30;;;11.70;99.90;;;;;;4958227;29;20940;-83
2024/02/19 12:27:41;;;;;;;0.60;0.30;;;11.60;99.90;;;;;;4958731;29;20862;-83
2024/02/19 12:30:09;;;;;;;0.40;0.30;;;11.40;99.90;;;;;;4957918;29;20521;-83
2024/02/19 12:32:36;;;;;;;0.30;0.30;;;11.30;99.90;;;;;;4958120;29;20442;-83
2024/02/19 12:35:03;;;;;;;0.37;0.30;;;11.10;99.90;;;;;;4957244;29;20438;-83
2024/02/19 12:37:30;;;;;;;0.93;0.50;;;11.00;99.90;;;;;;4957679;29;20461;-83
2024/02/19 12:39:57;;;;;;;0.60;0.50;;;10.90;99.90;;;;;;4956589;29;20466;-83
2024/02/19 12:42:23;;;;;;;0.40;0.40;;;10.80;99.90;;;;;;4957254;29;20450;-83
2024/02/19 12:44:52;;;;;;;0.80;0.43;;;10.70;99.90;;;;;;4958189;29;20481;-83
2024/02/19 12:47:20;;;;;;;1.17;0.50;;;10.90;99.90;;;;;;4958041;29;20447;-83
2024/02/19 12:49:48;;;;;;;0.40;0.37;;;11.10;99.90;;;;;;4956869;29;20573;-83
2024/02/19 12:52:15;;;;;;;0.97;0.50;;;11.40;99.90;;;;;;4958009;29;21027;-82
2024/02/19 12:54:46;;;;;;;0.50;0.40;;;11.70;99.90;;;;;;4960242;29;20450;-81